Time;durP1;ratioP1;P1;durP2;ratioP2;P2;SDS_P1;SDS_P2;PMS_P1;PMS_P2;Temp;Humidity;BMP_temperature;BMP_pressure;BME280_temperature;BME280_humidity;BME280_pressure;Samples;Min_cycle;Max_cycle;Signal;HPM_P1;HPM_P2
2022/01/25 00:25:58;;;;;;;22.60;16.58;;;;;;;4.32;86.45;100547.00;4886368;29;20063;-89
2022/01/25 00:28:47;;;;;;;24.65;17.00;;;;;;;4.32;85.96;100538.25;4883163;29;20147;-90
2022/01/25 00:31:14;;;;;;;28.00;17.42;;;;;;;4.31;85.78;100536.59;4874161;29;20083;-90
2022/01/25 00:33:45;;;;;;;24.60;16.50;;;;;;;4.22;86.27;100519.91;4890151;29;20115;-90
2022/01/25 00:36:15;;;;;;;26.42;18.08;;;;;;;4.32;86.19;100535.59;4861615;29;20032;-89
2022/01/25 00:38:41;;;;;;;23.50;16.33;;;;;;;4.32;85.95;100530.31;4853621;29;20541;-89
2022/01/25 00:41:07;;;;;;;26.13;17.83;;;;;;;4.29;86.28;100522.72;4865345;29;20128;-89
2022/01/25 00:43:33;;;;;;;24.27;17.17;;;;;;;4.29;85.89;100525.34;4845010;29;20039;-88
2022/01/25 00:46:02;;;;;;;22.83;17.23;;;;;;;4.30;86.45;100525.19;4848810;29;20490;-88
2022/01/25 00:48:49;;;;;;;24.58;16.80;;;;;;;4.24;86.52;100504.72;4862035;29;20031;-88
2022/01/25 00:54:01;;;;;;;24.70;17.30;;;;;;;4.22;85.84;100506.69;4893630;29;20116;-88
2022/01/25 00:56:30;;;;;;;26.27;17.73;;;;;;;4.28;85.96;100513.16;4839982;29;20048;-89
2022/01/25 00:58:56;;;;;;;22.77;17.38;;;;;;;4.28;85.84;100516.59;4870178;29;20029;-88
2022/01/25 01:01:22;;;;;;;21.95;16.92;;;;;;;4.29;85.94;100514.78;4852681;29;20092;-88
2022/01/25 01:03:48;;;;;;;26.25;17.55;;;;;;;4.13;85.54;100488.41;4879289;29;20030;-89
2022/01/25 01:06:14;;;;;;;24.33;17.25;;;;;;;4.30;86.22;100506.69;4881682;29;20557;-88
2022/01/25 01:08:41;;;;;;;26.80;18.38;;;;;;;4.28;85.83;100513.16;4851140;29;20528;-88
2022/01/25 01:11:10;;;;;;;24.10;18.17;;;;;;;4.29;86.28;100501.56;4852062;29;20128;-88
2022/01/25 01:45:40;;;;;;;24.85;17.05;;;;;;;4.24;86.19;100514.44;4864825;29;20576;-89
2022/01/25 01:48:30;;;;;;;24.95;17.08;;;;;;;4.23;85.83;100502.25;4864272;29;20029;-89
2022/01/25 01:51:06;;;;;;;27.65;17.25;;;;;;;4.23;86.19;100507.53;4846757;29;20037;-90
2022/01/25 01:53:32;;;;;;;23.98;17.48;;;;;;;4.24;85.71;100501.25;4876371;29;20029;-89
2022/01/25 01:55:58;;;;;;;24.85;16.65;;;;;;;4.22;85.66;100501.41;4848982;29;20033;-90
2022/01/25 01:58:24;;;;;;;26.02;16.60;;;;;;;3.67;86.00;100410.66;4864208;29;20029;-90
2022/01/25 02:01:01;;;;;;;23.58;17.58;;;;;;;4.22;85.77;100500.59;4848876;29;20084;-89
2022/01/25 02:03:26;;;;;;;25.30;16.58;;;;;;;4.23;85.87;100499.59;4848524;29;20522;-90
2022/01/25 02:05:52;;;;;;;24.60;16.88;;;;;;;4.23;86.10;100495.16;4848540;29;20073;-89
2022/01/25 02:08:18;;;;;;;25.42;17.35;;;;;;;4.25;86.52;100492.34;4848682;29;20065;-90
2022/01/25 02:10:43;;;;;;;23.55;16.00;;;;;;;4.23;85.73;100492.50;4863696;29;20040;-89
2022/01/25 02:13:10;;;;;;;25.90;16.45;;;;;;;4.22;86.30;100485.56;4848382;29;20033;-89
2022/01/25 02:15:38;;;;;;;26.85;15.90;;;;;;;4.12;85.87;100461.16;4864095;29;20025;-89
2022/01/25 02:23:41;;;;;;;25.25;17.70;;;;;;;3.48;86.20;100363.50;4897031;29;20522;-92
2022/01/25 02:26:10;;;;;;;26.73;17.33;;;;;;;3.50;85.76;100362.34;4863694;29;20045;-91
2022/01/25 02:28:46;;;;;;;24.55;17.05;;;;;;;3.05;85.13;100293.44;4873467;29;20043;-92
2022/01/25 02:31:15;;;;;;;24.63;15.88;;;;;;;3.24;85.82;100330.03;4863107;29;20198;-91
2022/01/25 02:33:41;;;;;;;23.17;16.63;;;;;;;4.21;85.93;100483.94;4862607;29;20460;-91
2022/01/25 02:39:13;;;;;;;26.58;17.05;;;;;;;2.93;85.60;100260.44;4881928;29;20036;-93
2022/01/25 02:41:39;;;;;;;23.80;15.55;;;;;;;3.96;85.47;100426.81;4881997;29;20033;-92
2022/01/25 02:44:27;;;;;;;25.63;15.88;;;;;;;4.19;85.55;100477.16;4871362;29;20060;-91
2022/01/25 02:49:45;;;;;;;22.23;16.13;;;;;;;3.95;86.24;100437.56;4855068;29;20445;-92
2022/01/25 02:52:19;;;;;;;26.73;17.23;;;;;;;3.92;85.71;100440.53;4866688;29;20139;-93
2022/01/25 02:54:48;;;;;;;26.00;16.70;;;;;;;3.76;85.46;100413.13;4881604;29;20104;-91
2022/01/25 02:57:14;;;;;;;23.27;15.95;;;;;;;4.17;85.39;100487.06;4878729;29;20024;-93
2022/01/25 02:59:41;;;;;;;23.85;16.58;;;;;;;4.17;85.58;100479.94;4871835;29;20024;-90
2022/01/25 03:02:09;;;;;;;25.63;15.98;;;;;;;2.99;85.29;100286.97;4881063;29;20124;-91
2022/01/25 03:04:36;;;;;;;27.10;15.82;;;;;;;3.55;85.36;100367.13;4881126;29;20084;-91
2022/01/25 03:07:08;;;;;;;22.67;16.70;;;;;;;3.71;85.95;100390.88;4881202;29;20742;-91
2022/01/25 03:10:10;;;;;;;27.73;19.02;;;;;;;3.68;85.59;100394.66;4878118;29;20061;-92
2022/01/25 03:15:24;;;;;;;27.45;16.80;;;;;;;3.68;85.79;100396.47;4887212;29;20028;-92
2022/01/25 03:18:01;;;;;;;24.20;16.23;;;;;;;3.69;85.35;100392.88;4865298;29;20502;-91
2022/01/25 03:23:20;;;;;;;26.58;16.92;;;;;;;3.08;85.10;100284.38;4883160;29;20551;-90
2022/01/25 03:25:50;;;;;;;23.27;15.55;;;;;;;3.65;85.90;100367.75;4877266;29;20128;-92
2022/01/25 03:28:24;;;;;;;24.25;15.15;;;;;;;2.94;85.74;100262.94;4862628;29;20048;-91
2022/01/25 03:30:50;;;;;;;26.27;16.48;;;;;;;3.74;85.83;100388.72;4869421;29;20028;-92
2022/01/25 03:33:17;;;;;;;27.13;17.20;;;;;;;2.87;85.95;100251.41;4864784;29;20491;-90
2022/01/25 03:35:45;;;;;;;22.65;15.55;;;;;;;2.99;85.22;100273.78;4871533;29;20109;-92
2022/01/25 03:38:13;;;;;;;23.45;15.48;;;;;;;3.53;85.12;100354.09;4861937;29;20037;-90
2022/01/25 03:40:41;;;;;;;24.05;15.18;;;;;;;3.34;85.44;100316.66;4865181;29;20025;-90
2022/01/25 03:51:45;;;;;;;24.65;15.90;;;;;;;3.62;85.13;100355.75;4877229;29;20088;-91
2022/01/25 03:54:11;;;;;;;24.27;14.98;;;;;;;3.46;85.69;100353.09;4883985;29;20029;-91
2022/01/25 03:56:37;;;;;;;29.50;15.00;;;;;;;2.95;85.44;100261.94;4873861;29;20040;-91
2022/01/25 03:59:14;;;;;;;24.98;15.20;;;;;;;3.35;85.43;100337.59;4872509;29;20579;-92
2022/01/25 04:01:51;;;;;;;22.80;15.07;;;;;;;4.07;85.83;100433.56;4865796;29;20037;-92
2022/01/25 04:04:23;;;;;;;28.33;16.52;;;;;;;2.99;85.62;100268.53;4875566;29;20043;-91
2022/01/25 04:06:52;;;;;;;23.60;14.93;;;;;;;3.58;85.48;100383.44;4898359;29;20496;-90
2022/01/25 04:09:21;;;;;;;23.65;14.50;;;;;;;4.10;85.65;100459.66;4877388;29;20037;-91
2022/01/25 04:11:50;;;;;;;21.25;14.73;;;;;;;3.31;85.38;100317.81;4886470;29;20039;-92
2022/01/25 04:14:15;;;;;;;21.80;13.70;;;;;;;3.43;85.30;100331.50;4883485;29;20035;-92
2022/01/25 04:16:56;;;;;;;21.77;15.10;;;;;;;2.86;85.51;100244.47;4876063;29;20037;-92
2022/01/25 04:27:53;;;;;;;21.83;14.50;;;;;;;4.05;85.13;100448.75;4853983;29;20100;-93
2022/01/25 04:30:26;;;;;;;20.95;13.85;;;;;;;2.99;84.96;100286.97;4868781;29;20040;-92
2022/01/25 04:33:16;;;;;;;18.63;12.27;;;;;;;3.64;85.62;100393.34;4882818;29;20207;-92
2022/01/25 04:36:23;;;;;;;18.52;12.48;;;;;;;2.88;84.96;100268.03;4873361;29;20037;-92
2022/01/25 04:50:00;;;;;;;23.20;13.57;;;;;;;3.26;85.64;100335.13;4890016;29;20074;-92
2022/01/25 04:52:49;;;;;;;19.17;13.95;;;;;;;3.27;85.85;100336.78;4887743;29;20168;-91
2022/01/25 04:55:33;;;;;;;17.80;11.98;;;;;;;2.84;84.42;100264.91;4884433;29;20024;-93
2022/01/25 04:58:06;;;;;;;20.73;14.32;;;;;;;3.54;85.50;100374.22;4866121;29;20467;-91
2022/01/25 05:04:24;;;;;;;21.05;12.13;;;;;;;3.34;85.04;100340.41;4868323;23;20552;-89
2022/01/25 05:06:52;;;;;;;17.80;11.70;;;;;;;3.89;85.62;100433.75;4860372;29;20044;-88
2022/01/25 05:09:20;;;;;;;20.42;13.10;;;;;;;3.75;85.63;100413.31;4862375;29;20037;-88
2022/01/25 05:11:50;;;;;;;20.92;13.52;;;;;;;3.46;85.58;100360.19;4832756;29;20045;-89
2022/01/25 05:15:00;;;;;;;21.30;13.23;;;;;;;3.25;85.42;100326.41;4860516;29;20041;-89
2022/01/25 05:17:37;;;;;;;21.00;12.50;;;;;;;3.39;85.48;100346.00;4859856;29;20116;-87
2022/01/25 05:22:49;;;;;;;20.85;12.85;;;;;;;3.59;85.14;100369.25;4830875;29;20044;-88
2022/01/25 05:25:14;;;;;;;20.73;13.13;;;;;;;3.23;85.22;100319.63;4825474;29;20080;-87
2022/01/25 05:27:39;;;;;;;21.02;13.25;;;;;;;3.36;85.46;100341.06;4828751;29;20491;-87
2022/01/25 05:30:05;;;;;;;22.27;13.60;;;;;;;3.96;85.09;100423.34;4859124;29;20030;-87
2022/01/25 05:32:34;;;;;;;23.00;13.63;;;;;;;3.59;85.17;100373.72;4852930;29;20045;-88
2022/01/25 05:35:00;;;;;;;25.20;14.82;;;;;;;3.98;84.90;100427.47;4854382;29;20037;-87
2022/01/25 05:37:25;;;;;;;20.52;13.73;;;;;;;3.58;84.88;100372.06;4857392;29;20041;-87
2022/01/25 05:39:53;;;;;;;18.50;12.07;;;;;;;3.09;84.81;100284.19;4813383;29;20048;-88
2022/01/25 05:47:29;;;;;;;27.65;14.90;;;;;;;3.96;84.61;100429.47;4861255;29;20112;-85
2022/01/25 05:49:56;;;;;;;24.17;14.50;;;;;;;3.85;84.69;100408.66;4863072;29;20060;-85
2022/01/25 05:52:22;;;;;;;21.80;14.25;;;;;;;3.53;85.07;100355.91;4865492;29;20033;-85
2022/01/25 05:54:48;;;;;;;21.42;13.70;;;;;;;3.77;84.45;100398.13;4862760;29;20037;-85
2022/01/25 05:57:14;;;;;;;22.33;13.68;;;;;;;3.92;84.99;100427.31;4843638;29;20045;-85
2022/01/25 05:59:39;;;;;;;22.38;14.27;;;;;;;3.40;85.06;100353.78;4863593;29;20419;-84
2022/01/25 06:02:05;;;;;;;22.00;14.80;;;;;;;3.30;84.73;100347.03;4862974;29;20033;-85
2022/01/25 06:04:32;;;;;;;22.95;13.43;;;;;;;3.53;84.36;100379.66;4860416;29;20056;-85
2022/01/25 06:07:00;;;;;;;25.00;14.85;;;;;;;3.64;84.17;100405.72;4857845;29;20041;-85
2022/01/25 06:09:25;;;;;;;22.95;13.98;;;;;;;2.81;84.34;100283.69;4844134;29;20125;-85
2022/01/25 06:11:53;;;;;;;20.02;13.07;;;;;;;3.14;84.04;100325.91;4854064;29;20065;-85
2022/01/25 06:14:19;;;;;;;25.17;14.77;;;;;;;3.54;83.76;100402.41;4846439;29;20050;-85
2022/01/25 06:16:45;;;;;;;20.63;14.00;;;;;;;3.08;84.31;100323.94;4865651;29;20053;-86
2022/01/25 06:19:10;;;;;;;24.05;14.57;;;;;;;3.50;84.19;100391.38;4858969;29;20037;-86
2022/01/25 06:21:35;;;;;;;26.23;15.43;;;;;;;3.32;84.56;100351.13;4846995;29;20486;-85
2022/01/25 06:24:01;;;;;;;27.88;14.45;;;;;;;3.85;84.05;100442.16;4863015;29;20040;-86
2022/01/25 06:26:26;;;;;;;23.77;14.35;;;;;;;3.83;84.25;100438.88;4838940;29;20383;-87
2022/01/25 06:28:52;;;;;;;22.30;12.93;;;;;;;3.19;84.11;100323.59;4857694;29;20475;-86
2022/01/25 06:31:18;;;;;;;20.90;14.35;;;;;;;3.72;84.30;100421.56;4853703;29;20029;-86
2022/01/25 06:33:45;;;;;;;22.85;13.40;;;;;;;3.80;84.09;100437.38;4856316;29;20053;-86
2022/01/25 06:36:11;;;;;;;28.33;14.48;;;;;;;3.80;84.15;100438.22;4859243;29;20483;-85
2022/01/25 06:38:37;;;;;;;26.13;14.57;;;;;;;3.57;84.75;100408.19;4845142;29;20044;-85
2022/01/25 06:41:02;;;;;;;24.33;14.25;;;;;;;3.42;84.32;100387.91;4843595;29;20033;-87
2022/01/25 06:43:28;;;;;;;20.65;13.32;;;;;;;3.73;84.16;100428.50;4841874;29;20030;-86
2022/01/25 06:46:01;;;;;;;18.75;11.95;;;;;;;3.68;84.05;100426.34;4844274;29;20050;-85
2022/01/25 06:48:27;;;;;;;19.58;12.35;;;;;;;3.80;84.31;100450.59;4854458;29;20379;-86
2022/01/25 06:50:52;;;;;;;26.63;13.77;;;;;;;3.70;84.45;100437.56;4857907;29;20041;-85
2022/01/25 06:53:18;;;;;;;21.95;13.75;;;;;;;3.75;84.37;100445.00;4844681;29;20033;-85
2022/01/25 06:55:43;;;;;;;21.10;13.00;;;;;;;3.74;84.20;100449.44;4856234;29;20047;-86
2022/01/25 06:58:09;;;;;;;22.52;12.80;;;;;;;3.63;84.41;100436.56;4845112;29;20094;-85
2022/01/25 07:00:35;;;;;;;19.42;11.68;;;;;;;3.65;83.82;100446.97;4845466;29;20033;-85
2022/01/25 07:03:00;;;;;;;22.65;13.05;;;;;;;3.44;83.94;100407.88;4846797;29;20064;-85
2022/01/25 07:05:26;;;;;;;18.75;13.00;;;;;;;3.65;83.73;100439.03;4856559;29;20576;-86
2022/01/25 07:07:53;;;;;;;22.15;13.40;;;;;;;3.44;84.13;100413.16;4845561;29;20045;-85
2022/01/25 07:10:19;;;;;;;19.75;12.43;;;;;;;3.69;84.18;100459.66;4842365;29;20123;-84
2022/01/25 07:12:45;;;;;;;23.02;14.20;;;;;;;3.29;84.39;100398.13;4867548;29;20036;-84
2022/01/25 07:15:11;;;;;;;19.90;13.38;;;;;;;3.68;84.07;100458.03;4863569;29;20387;-85
2022/01/25 07:17:36;;;;;;;23.17;13.60;;;;;;;3.23;84.14;100389.06;4863815;29;20090;-84
2022/01/25 07:20:04;;;;;;;22.75;14.02;;;;;;;3.48;84.27;100440.84;4864343;29;20394;-84
2022/01/25 07:22:29;;;;;;;26.38;15.15;;;;;;;3.65;83.63;100468.91;4860723;29;20094;-84
2022/01/25 07:24:54;;;;;;;20.50;12.68;;;;;;;3.32;83.81;100416.28;4850052;29;20045;-85
2022/01/25 07:27:20;;;;;;;23.88;15.43;;;;;;;3.53;84.04;100451.75;4849246;29;20092;-85
2022/01/25 07:29:45;;;;;;;22.45;14.55;;;;;;;3.67;84.00;100480.13;4849352;29;20041;-84
2022/01/25 07:32:10;;;;;;;23.85;14.40;;;;;;;3.51;84.13;100445.81;4866798;29;20125;-85
2022/01/25 07:34:36;;;;;;;23.88;14.90;;;;;;;3.59;83.83;100456.38;4832006;29;20036;-84
2022/01/25 07:37:01;;;;;;;23.90;14.23;;;;;;;3.66;83.80;100472.38;4835034;29;20045;-85
2022/01/25 07:39:28;;;;;;;29.45;14.95;;;;;;;3.65;84.00;100468.06;4867018;29;20040;-84
2022/01/25 07:41:58;;;;;;;26.38;15.90;;;;;;;3.65;84.16;100462.81;4851848;29;20128;-84
2022/01/25 07:44:27;;;;;;;20.90;13.57;;;;;;;3.51;84.04;100442.34;4832696;29;20032;-85
2022/01/25 07:46:53;;;;;;;26.27;14.95;;;;;;;3.65;84.23;100465.44;4862201;29;20069;-85
2022/01/25 07:49:18;;;;;;;21.55;14.38;;;;;;;3.57;84.26;100452.25;4848136;29;20056;-85
2022/01/25 07:51:44;;;;;;;22.98;13.77;;;;;;;3.65;84.35;100462.81;4866061;29;20132;-84
2022/01/25 07:54:09;;;;;;;26.73;15.23;;;;;;;3.33;83.74;100421.38;4868915;29;20037;-85
2022/01/25 07:56:35;;;;;;;21.52;13.68;;;;;;;3.63;83.89;100476.16;4858117;29;20464;-85
2022/01/25 07:59:00;;;;;;;23.35;14.07;;;;;;;3.55;83.63;100462.97;4843703;29;20041;-85
2022/01/25 08:01:26;;;;;;;26.30;15.63;;;;;;;3.50;83.84;100454.72;4839223;29;20033;-85
2022/01/25 08:03:52;;;;;;;25.33;14.93;;;;;;;3.62;84.08;100477.19;4854532;29;20033;-85
2022/01/25 08:06:18;;;;;;;25.27;15.30;;;;;;;3.37;84.23;100424.50;4844259;29;20039;-85
2022/01/25 08:08:44;;;;;;;26.65;14.43;;;;;;;3.47;84.12;100447.09;4856598;29;20038;-84
2022/01/25 08:11:10;;;;;;;24.50;14.38;;;;;;;3.62;84.25;100468.44;4852833;29;20082;-85
2022/01/25 08:13:38;;;;;;;24.17;14.15;;;;;;;3.29;83.91;100422.69;4850359;29;20468;-84
2022/01/25 08:16:04;;;;;;;25.75;14.35;;;;;;;3.65;83.82;100481.28;4837275;29;20030;-84
2022/01/25 08:18:29;;;;;;;24.88;13.93;;;;;;;3.53;83.77;100472.03;4859713;29;20041;-85
2022/01/25 08:20:54;;;;;;;29.10;15.70;;;;;;;3.48;83.96;100461.13;4858390;29;20042;-86
2022/01/25 08:23:24;;;;;;;26.58;14.13;;;;;;;3.42;83.93;100454.72;4829560;29;20034;-84
2022/01/25 08:25:49;;;;;;;25.77;14.57;;;;;;;3.55;83.51;100478.81;4844668;29;20851;-84
2022/01/25 08:28:14;;;;;;;24.90;13.82;;;;;;;3.23;83.92;100423.38;4845348;29;20435;-84
2022/01/25 08:30:40;;;;;;;21.65;13.10;;;;;;;3.44;83.34;100451.91;4851076;29;20061;-85
2022/01/25 08:33:05;;;;;;;22.95;12.90;;;;;;;3.39;83.91;100446.28;4848012;29;20030;-85
2022/01/25 08:35:30;;;;;;;23.98;13.52;;;;;;;3.20;83.34;100413.13;4819174;29;20091;-85
2022/01/25 08:37:56;;;;;;;25.73;14.52;;;;;;;3.35;83.51;100443.16;4849362;29;20124;-85
2022/01/25 08:40:21;;;;;;;22.30;12.43;;;;;;;3.44;83.35;100459.81;4850037;29;20061;-85
2022/01/25 08:42:46;;;;;;;21.25;13.55;;;;;;;3.59;83.06;100485.41;4846749;29;20041;-85
2022/01/25 08:45:12;;;;;;;21.90;13.68;;;;;;;3.61;83.12;100485.25;4865906;29;20036;-85
2022/01/25 08:47:37;;;;;;;22.88;13.90;;;;;;;3.60;83.28;100488.88;4825533;29;20402;-85
2022/01/25 08:50:05;;;;;;;21.65;12.80;;;;;;;3.04;83.35;100395.44;4860653;29;20057;-85
2022/01/25 08:52:30;;;;;;;19.30;12.23;;;;;;;3.07;83.09;100396.94;4842479;29;20045;-85
2022/01/25 08:54:55;;;;;;;21.33;12.45;;;;;;;3.19;82.85;100424.66;4851777;29;20159;-85
2022/01/25 08:57:21;;;;;;;23.60;13.00;;;;;;;3.56;83.61;100479.66;4830968;29;20037;-85
2022/01/25 08:59:46;;;;;;;23.10;13.65;;;;;;;3.60;83.12;100486.25;4866619;29;20036;-86
2022/01/25 09:02:15;;;;;;;23.50;14.30;;;;;;;3.57;83.46;100487.41;4832423;29;20120;-86
2022/01/25 09:04:40;;;;;;;22.50;13.73;;;;;;;3.41;83.27;100460.97;4851185;29;20033;-86
2022/01/25 09:07:05;;;;;;;21.58;12.85;;;;;;;3.59;83.33;100485.41;4838014;29;20120;-84
2022/01/25 09:09:31;;;;;;;26.45;14.88;;;;;;;3.45;83.44;100457.00;4842754;29;20053;-86
2022/01/25 09:11:57;;;;;;;23.33;13.48;;;;;;;3.60;83.37;100480.97;4854150;29;20324;-85
2022/01/25 09:14:23;;;;;;;30.42;16.13;;;;;;;3.62;82.98;100489.53;4860200;29;20034;-85
2022/01/25 09:16:48;;;;;;;28.75;14.55;;;;;;;3.13;83.19;100417.38;4859812;29;20037;-85
2022/01/25 09:19:14;;;;;;;27.10;14.70;;;;;;;3.63;83.39;100486.72;4830082;29;20044;-86
2022/01/25 09:21:39;;;;;;;27.48;14.23;;;;;;;3.64;83.55;100483.13;4839498;29;20022;-84
2022/01/25 09:24:05;;;;;;;31.55;14.93;;;;;;;3.61;83.32;100479.97;4851465;29;20536;-85
2022/01/25 09:26:30;;;;;;;31.05;15.10;;;;;;;3.65;83.54;100490.03;4848178;29;20034;-86
2022/01/25 09:28:57;;;;;;;28.92;16.38;;;;;;;3.61;83.28;100483.44;4861304;29;20095;-84
2022/01/25 09:31:23;;;;;;;33.92;15.80;;;;;;;3.07;83.52;100381.13;4858446;29;20030;-85
2022/01/25 09:33:48;;;;;;;29.08;14.95;;;;;;;3.48;83.08;100455.88;4859156;29;20029;-86
2022/01/25 09:36:14;;;;;;;31.08;16.77;;;;;;;3.57;82.78;100470.72;4855413;29;20494;-83
2022/01/25 09:38:39;;;;;;;26.67;14.80;;;;;;;3.58;82.76;100470.56;4850209;29;20025;-86
2022/01/25 09:41:04;;;;;;;27.38;13.95;;;;;;;3.24;83.43;100418.88;4837965;29;21833;-87
2022/01/25 09:43:31;;;;;;;32.38;16.58;;;;;;;3.60;83.01;100475.69;4855390;29;21021;-86
2022/01/25 09:45:56;;;;;;;32.85;17.30;;;;;;;2.94;83.02;100378.97;4847369;29;20080;-87
2022/01/25 09:48:22;;;;;;;36.20;19.17;;;;;;;3.45;83.37;100449.09;4818405;29;20617;-87
2022/01/25 09:50:50;;;;;;;32.78;16.70;;;;;;;2.53;83.32;100308.69;4861798;29;20107;-87
2022/01/25 09:53:16;;;;;;;30.13;16.10;;;;;;;2.43;83.30;100288.72;4845012;29;20487;-87
2022/01/25 09:55:45;;;;;;;29.58;15.77;;;;;;;3.25;83.48;100418.75;4842746;29;20097;-86
2022/01/25 09:58:15;;;;;;;34.22;16.13;;;;;;;3.47;82.78;100456.88;4859047;29;20053;-86
2022/01/25 10:00:43;;;;;;;31.55;17.60;;;;;;;3.60;82.74;100473.06;4849708;29;20045;-86
2022/01/25 10:03:21;;;;;;;42.75;18.42;;;;;;;3.25;82.97;100421.38;4859420;29;20089;-86
2022/01/25 10:05:48;;;;;;;32.90;17.35;;;;;;;3.49;83.52;100453.09;4857875;29;20037;-86
2022/01/25 10:08:26;;;;;;;37.05;17.45;;;;;;;3.14;83.19;100405.88;4856741;29;20530;-86
2022/01/25 10:11:05;;;;;;;42.92;21.58;;;;;;;3.15;82.99;100417.22;4840604;29;20029;-86
2022/01/25 10:13:37;;;;;;;39.47;21.10;;;;;;;3.70;83.61;100489.53;4845938;29;20038;-86
2022/01/25 10:16:13;;;;;;;44.20;21.08;;;;;;;3.23;83.22;100422.53;4853822;29;20030;-86
2022/01/25 10:18:51;;;;;;;44.05;21.08;;;;;;;3.72;82.90;100493.69;4853339;29;20030;-86
2022/01/25 10:21:32;;;;;;;40.30;20.40;;;;;;;2.53;82.91;100300.78;4855712;29;20099;-86
2022/01/25 10:24:14;;;;;;;42.00;20.63;;;;;;;3.18;82.85;100411.63;4857264;29;20040;-86
2022/01/25 10:26:47;;;;;;;42.78;21.50;;;;;;;3.21;83.02;100417.41;4860243;29;20038;-86
2022/01/25 10:29:19;;;;;;;46.80;21.52;;;;;;;3.70;83.49;100497.47;4844664;29;20144;-87
2022/01/25 10:31:58;;;;;;;43.35;21.55;;;;;;;3.68;83.43;100495.00;4856126;29;20088;-87
2022/01/25 10:34:47;;;;;;;44.15;22.52;;;;;;;3.46;83.04;100468.41;4848382;29;20033;-86
2022/01/25 10:37:30;;;;;;;39.97;19.65;;;;;;;3.60;82.83;100483.59;4856508;29;20033;-86
2022/01/25 10:40:15;;;;;;;38.95;20.67;;;;;;;2.52;83.11;100314.09;4855779;29;20041;-86
2022/01/25 10:42:41;;;;;;;43.38;21.45;;;;;;;2.41;83.53;100294.16;4854166;29;20092;-86
2022/01/25 10:45:10;;;;;;;46.15;22.63;;;;;;;2.84;83.18;100370.34;4856851;29;20120;-86
2022/01/25 10:47:50;;;;;;;49.75;22.42;;;;;;;3.57;83.18;100490.03;4864811;29;20035;-86
2022/01/25 10:50:23;;;;;;;43.00;21.65;;;;;;;3.73;83.53;100497.16;4827708;29;20033;-87
2022/01/25 10:53:10;;;;;;;50.75;23.42;;;;;;;3.73;83.53;100494.50;4862039;29;20450;-87
2022/01/25 10:55:41;;;;;;;46.47;21.95;;;;;;;3.76;83.49;100496.81;4860974;29;20037;-86
2022/01/25 10:58:07;;;;;;;47.45;23.33;;;;;;;3.77;83.37;100501.09;4839576;29;20041;-86
2022/01/25 11:00:42;;;;;;;48.15;24.40;;;;;;;3.76;83.60;100497.63;4858664;29;20169;-86
2022/01/25 11:03:08;;;;;;;49.53;23.25;;;;;;;3.79;83.30;100496.47;4860210;29;20169;-85
2022/01/25 11:05:37;;;;;;;52.45;23.23;;;;;;;3.79;83.04;100486.75;4856764;29;20037;-85
2022/01/25 11:08:17;;;;;;;47.63;23.63;;;;;;;3.70;83.18;100468.41;4846555;29;20029;-86
2022/01/25 11:10:53;;;;;;;51.35;24.63;;;;;;;3.82;83.04;100479.50;4841148;29;20034;-86
2022/01/25 11:13:34;;;;;;;48.88;24.27;;;;;;;3.65;82.87;100452.25;4857833;29;20520;-85
2022/01/25 11:16:03;;;;;;;45.75;23.30;;;;;;;3.72;83.29;100458.53;4838745;29;20037;-85
2022/01/25 11:18:33;;;;;;;52.25;23.70;;;;;;;3.59;82.86;100440.53;4863564;29;20029;-87
2022/01/25 11:21:01;;;;;;;51.55;24.08;;;;;;;3.60;83.34;100444.81;4858699;29;20040;-87
2022/01/25 11:23:30;;;;;;;51.90;24.98;;;;;;;2.87;82.81;100311.22;4837905;29;20483;-87
2022/01/25 11:25:56;;;;;;;48.40;24.80;;;;;;;2.89;82.70;100312.69;4855082;29;20081;-88
2022/01/25 11:28:23;;;;;;;52.38;24.85;;;;;;;3.32;82.65;100379.34;4841627;29;20041;-88
2022/01/25 11:30:50;;;;;;;60.83;25.77;;;;;;;3.50;82.26;100419.56;4858977;29;20041;-88
2022/01/25 11:33:18;;;;;;;57.03;25.33;;;;;;;3.77;82.68;100450.94;4854747;29;20129;-87
2022/01/25 11:35:44;;;;;;;51.47;26.38;;;;;;;3.37;82.89;100396.31;4841582;29;20029;-87
2022/01/25 11:38:09;;;;;;;54.20;25.80;;;;;;;3.13;83.29;100348.81;4857939;29;20029;-87
2022/01/25 11:40:46;;;;;;;53.58;27.73;;;;;;;3.89;82.70;100473.38;4851142;29;20128;-87
2022/01/25 11:43:14;;;;;;;56.28;26.60;;;;;;;3.91;82.59;100468.75;4859205;29;20112;-87
2022/01/25 11:45:45;;;;;;;51.22;24.90;;;;;;;2.91;83.01;100309.88;4840789;29;20048;-88
2022/01/25 11:48:11;;;;;;;57.67;27.30;;;;;;;3.28;82.49;100364.81;4851298;29;20414;-87
2022/01/25 11:50:43;;;;;;;51.58;25.20;;;;;;;3.65;82.49;100426.66;4863109;29;20040;-88
2022/01/25 11:53:12;;;;;;;55.95;24.75;;;;;;;3.50;82.49;100411.66;4840735;29;20061;-87
2022/01/25 11:55:52;;;;;;;54.58;26.30;;;;;;;2.97;82.56;100319.81;4854458;29;20029;-88
2022/01/25 11:58:23;;;;;;;55.08;25.25;;;;;;;3.40;82.36;100388.09;4838934;29;20045;-87
2022/01/25 12:00:54;;;;;;;56.08;25.58;;;;;;;2.89;82.91;100312.69;4853437;29;20033;-86
2022/01/25 12:03:28;;;;;;;55.67;27.23;;;;;;;3.64;82.48;100417.13;4847758;29;20026;-88
2022/01/25 12:35:10;;;;;;;65.18;26.98;;;;;;;3.84;82.79;100425.53;4734509;30;20093;-88
2022/01/25 12:37:58;;;;;;;57.88;26.65;;;;;;;3.85;82.27;100426.31;4728222;30;20053;-88
2022/01/25 12:40:28;;;;;;;57.53;25.48;;;;;;;3.41;82.23;100349.28;4761490;29;20050;-87
2022/01/25 12:43:19;;;;;;;65.10;26.17;;;;;;;3.84;82.18;100408.84;4814128;29;20727;-89
2022/01/25 12:46:18;;;;;;;55.95;25.60;;;;;;;3.85;81.67;100415.75;4827146;29;20045;-87
2022/01/25 12:48:48;;;;;;;55.38;26.10;;;;;;;3.87;82.14;100416.44;4856584;29;21970;-88
2022/01/25 12:51:19;;;;;;;54.80;26.40;;;;;;;3.39;82.17;100336.28;4863001;29;20087;-89
2022/01/25 12:54:38;;;;;;;;;;;;;;;;;;;;;
2022/01/25 12:57:08;;;;;;;59.30;27.23;;;;;;;2.98;81.89;100258.97;4859348;29;20056;-88
2022/01/25 12:59:34;;;;;;;63.15;28.27;;;;;;;3.17;81.88;100289.44;4861133;29;20017;-86
2022/01/25 13:02:29;;;;;;;;;;;;;;;;;;;;;
2022/01/25 13:04:57;;;;;;;63.08;28.38;;;;;;;2.77;81.45;100216.47;4861656;29;20482;-87
2022/01/25 13:07:25;;;;;;;58.70;26.80;;;;;;;2.91;81.70;100252.72;4858473;29;21578;-87
2022/01/25 13:09:55;;;;;;;61.78;28.42;;;;;;;2.76;81.57;100217.44;4850252;29;20040;-87
2022/01/25 13:12:30;;;;;;;56.22;26.77;;;;;;;3.89;81.72;100401.25;4868603;29;20060;-88
2022/01/25 13:15:27;;;;;;;59.42;28.90;;;;;;;2.78;80.67;100204.94;4829084;29;20044;-88
2022/01/25 13:18:08;;;;;;;57.83;26.90;;;;;;;2.79;81.70;100208.38;4863293;29;20036;-88
2022/01/25 13:20:39;;;;;;;54.83;26.58;;;;;;;3.15;81.18;100274.78;4867529;29;20035;-87
2022/01/25 13:23:05;;;;;;;62.33;27.67;;;;;;;3.12;80.89;100285.69;4859782;29;20042;-86
2022/01/25 13:31:11;;;;;;;59.17;26.63;;;;;;;3.86;80.93;100383.91;4861910;29;20116;-88
2022/01/25 13:33:36;;;;;;;52.75;24.20;;;;;;;3.48;81.19;100324.72;4845327;29;20045;-88
2022/01/25 13:36:08;;;;;;;63.60;27.55;;;;;;;3.87;81.97;100390.84;4856958;29;20169;-87
2022/01/25 13:38:39;;;;;;;49.40;24.30;;;;;;;3.05;81.84;100248.59;4856974;29;20037;-89
2022/01/25 15:38:29;;;;;;;51.80;24.63;;;;;;;3.76;82.72;100370.06;4903025;29;20048;-89
2022/01/25 15:40:54;;;;;;;60.17;25.13;;;;;;;3.88;82.78;100396.94;4890423;29;20033;-89
2022/01/25 15:43:24;;;;;;;62.35;27.52;;;;;;;3.87;82.90;100393.47;4903636;29;20029;-92
2022/01/25 15:48:21;;;;;;;52.30;24.23;;;;;;;3.88;83.16;100389.84;4887774;29;20473;-90
2022/01/25 15:50:48;;;;;;;58.67;24.38;;;;;;;3.84;83.06;100382.44;4881471;29;20028;-91
2022/01/25 15:53:13;;;;;;;54.70;25.80;;;;;;;3.71;82.74;100359.19;4877300;29;20111;-88
2022/01/25 15:55:39;;;;;;;54.05;24.50;;;;;;;3.85;83.27;100384.91;4874425;29;20735;-88
2022/01/25 15:58:05;;;;;;;56.13;24.42;;;;;;;3.57;83.08;100344.03;4847937;29;20083;-88
2022/01/25 16:00:31;;;;;;;59.92;27.30;;;;;;;3.79;83.17;100381.13;4879172;29;20038;-87
2022/01/25 16:02:59;;;;;;;54.65;25.30;;;;;;;3.72;83.29;100374.03;4875207;29;20490;-92